CheckWX is a tool to help pilots better visualize weather data.  It is not intended as a substitute for an official pre-flight weather briefing.

05:27:05 UTC

KPHL TAF
Philadelphia International Airport
Philadelphia, Pennsylvania, USA
KPHL 240248Z 2403/2506 VRB03KT P6SM FEW035 OVC180 FM240900 VRB03KT P6SM FEW035 SCT250 FM241600 08007KT P6SM BKN180 FM250400 07008KT P6SM SCT040 BKN080

Jan-24@
03:00 UTC

Jan-24 @ 03:00 UTC

Jan-24@
09:00 UTC

Jan-24 @ 09:00 UTC

KPHL 240248Z 2403/2506 VRB03KT P6SM FEW035 OVC180
Wind
  • Variable at 3 KTS
Cloud Levels
  • Few at 3,500' AGL
  • Overcast at 18,000' AGL

Jan-24@
09:00 UTC

Jan-24 @ 09:00 UTC

Jan-24@
16:00 UTC

Jan-24 @ 16:00 UTC

FM240900 VRB03KT P6SM FEW035 SCT250

From

From Standard forecast or significant change

Wind
  • Variable at 3 KTS
Cloud Levels
  • Few at 3,500' AGL
  • Scattered at 25,000' AGL

Jan-24@
16:00 UTC

Jan-24 @ 16:00 UTC

Jan-25@
04:00 UTC

Jan-25 @ 04:00 UTC

FM241600 08007KT P6SM BKN180

From

From Standard forecast or significant change

Wind
  • 080° at 7 KTS
Cloud Levels
  • Broken at 18,000' AGL

Jan-25@
04:00 UTC

Jan-25 @ 04:00 UTC

Jan-25@
06:00 UTC

Jan-25 @ 06:00 UTC

FM250400 07008KT P6SM SCT040 BKN080

From

From Standard forecast or significant change

Wind
  • 070° at 8 KTS
Cloud Levels
  • Scattered at 4,000' AGL
  • Broken at 8,000' AGL